logo
Rechercher aéroport 
image banner adimage banner adimage banner ad
image banner ad

MHTG - Toncontin

Situé à Tegucigalpa, Honduras

ICAO - MHTG, IATA - TGU

Données fournies par Airmate  

Information générale

Coordonnées: N14°3'37" W87°13'3"
Élévation : 3307 feet MSL.
 
Voir autres Aéroports à Francisco Morazan

Données opérationnelles

Special qualification required
Heure actuelle UTC:
Heure actuelle locale:
Météo
METAR: MHTG 231700Z 36009KT 9999 FEW030 27/18 Q1020 A3012 NOSIG
TAF: TAF MHTG 231700Z 2318/2418 07014KT 9999 FEW032 TX29/2320Z TN19/2412Z BECMG 2401/2403 VRB03KT BECMG 2410/2412 FEW010 BKN028 BECMG 2416/2418 06010KT SCT032TCU
Voir NOTAMs / SUP AIP / TFR affectant cet aéroport [VIEW]
Fréquences de communication: [VIEW]

Pistes:

Identifiant RWYQFULongueur (ft)Largeur (ft)SurfaceLDA (ft)
0219°6631148ASP
20199°6631148ASP

Coordonnées de l'aéroport

Adresse: Tegucigalpa Honduras

Vue satellite de MHTG